Time;durP1;ratioP1;P1;durP2;ratioP2;P2;SDS_P1;SDS_P2;PMS_P1;PMS_P2;Temp;Humidity;BMP_temperature;BMP_pressure;BME280_temperature;BME280_humidity;BME280_pressure;Samples;Min_cycle;Max_cycle;Signal;HPM_P1;HPM_P2
2022/01/10 00:01:13;;;;;;;17.95;12.57;;;5.10;1.00;;;;;;4996384;28;20223;-81
2022/01/10 00:03:40;;;;;;;17.58;13.20;;;5.10;1.00;;;;;;4998870;28;20229;-82
2022/01/10 00:06:06;;;;;;;18.98;12.73;;;5.10;1.00;;;;;;4998203;28;21421;-81
2022/01/10 00:08:34;;;;;;;22.77;14.50;;;5.10;1.00;;;;;;4992647;28;21732;-80
2022/01/10 00:11:01;;;;;;;17.48;12.30;;;5.10;1.00;;;;;;4998355;28;20227;-83
2022/01/10 00:13:27;;;;;;;16.90;13.10;;;5.10;1.00;;;;;;4999877;28;20238;-79
2022/01/10 00:15:55;;;;;;;16.48;12.85;;;5.10;1.00;;;;;;5000361;28;20223;-81
2022/01/10 00:18:23;;;;;;;18.65;13.32;;;5.00;1.00;;;;;;4994734;28;20227;-80
2022/01/10 00:20:50;;;;;;;15.88;12.50;;;5.00;1.00;;;;;;4996542;28;20215;-81
2022/01/10 00:23:16;;;;;;;21.00;14.13;;;5.00;1.00;;;;;;4995985;28;20219;-81
2022/01/10 00:25:44;;;;;;;17.95;12.82;;;5.10;1.00;;;;;;5001522;28;20254;-80
2022/01/10 00:28:11;;;;;;;18.73;12.40;;;5.10;1.00;;;;;;4996479;28;20237;-83
2022/01/10 00:30:37;;;;;;;18.65;13.15;;;5.10;1.00;;;;;;4997181;28;20309;-81
2022/01/10 00:33:05;;;;;;;18.95;13.25;;;5.10;1.00;;;;;;4998852;28;20259;-80
2022/01/10 00:35:34;;;;;;;19.33;12.57;;;5.10;1.00;;;;;;4996076;28;20728;-81
2022/01/10 00:38:00;;;;;;;16.88;12.40;;;5.20;1.00;;;;;;4991808;28;20223;-81
2022/01/10 00:40:27;;;;;;;20.40;13.02;;;5.20;1.00;;;;;;5001145;28;20219;-82
2022/01/10 00:42:56;;;;;;;18.30;13.23;;;5.20;1.00;;;;;;5000987;28;20294;-81
2022/01/10 00:45:26;;;;;;;18.45;12.73;;;5.10;1.00;;;;;;4999429;28;20230;-82
2022/01/10 00:47:55;;;;;;;20.30;14.15;;;5.10;1.00;;;;;;4999719;28;20235;-81
2022/01/10 00:50:24;;;;;;;22.52;14.68;;;5.10;1.00;;;;;;4997322;28;20230;-80
2022/01/10 00:52:52;;;;;;;18.70;13.38;;;5.20;1.00;;;;;;4998886;28;20226;-80
2022/01/10 00:55:20;;;;;;;19.48;13.63;;;5.20;1.00;;;;;;4997384;28;20957;-82
2022/01/10 00:57:47;;;;;;;17.15;13.15;;;5.20;1.00;;;;;;5000851;28;24075;-80
2022/01/10 01:00:16;;;;;;;20.10;13.98;;;5.30;1.00;;;;;;5020769;28;20289;-79
2022/01/10 01:02:43;;;;;;;17.85;13.95;;;5.30;1.00;;;;;;5017518;28;20278;-80
2022/01/10 01:05:12;;;;;;;18.23;13.23;;;5.30;1.00;;;;;;5012476;28;20234;-81
2022/01/10 01:07:43;;;;;;;20.23;13.35;;;5.40;1.00;;;;;;4997039;28;20482;-83
2022/01/10 01:10:40;;;;;;;14.90;12.70;;;5.40;1.00;;;;;;5003429;28;20222;-81
2022/01/10 01:13:19;;;;;;;17.55;12.90;;;5.40;1.00;;;;;;5002661;28;20255;-80
2022/01/10 01:15:57;;;;;;;20.27;13.95;;;5.50;1.00;;;;;;5022417;28;21028;-81
2022/01/10 01:18:56;;;;;;;23.10;13.70;;;5.50;1.00;;;;;;5012427;28;22942;-83
2022/01/10 01:24:06;;;;;;;19.35;12.68;;;5.60;1.00;;;;;;5002081;28;20222;-82
2022/01/10 01:26:37;;;;;;;15.45;11.30;;;5.50;1.00;;;;;;5000918;28;20231;-82
2022/01/10 01:29:05;;;;;;;18.17;12.85;;;5.50;1.00;;;;;;4998014;28;20232;-81
2022/01/10 01:31:32;;;;;;;16.70;11.90;;;5.50;1.00;;;;;;5002267;28;20303;-81
2022/01/10 01:33:59;;;;;;;17.50;13.98;;;5.60;1.00;;;;;;4998009;28;20291;-81
2022/01/10 01:36:26;;;;;;;15.93;11.55;;;5.60;1.00;;;;;;5000285;28;20243;-80
2022/01/10 01:38:54;;;;;;;16.17;11.38;;;5.70;1.00;;;;;;5003135;28;20231;-81
2022/01/10 01:41:35;;;;;;;12.57;11.02;;;5.80;1.00;;;;;;5000557;28;20229;-81
2022/01/10 01:44:04;;;;;;;19.15;12.00;;;5.90;1.00;;;;;;5005134;28;20592;-83
2022/01/10 01:46:34;;;;;;;18.88;11.77;;;6.00;1.00;;;;;;5004959;28;20807;-80
2022/01/10 01:49:03;;;;;;;19.90;11.65;;;6.00;1.00;;;;;;5001736;28;20284;-82
2022/01/10 01:51:30;;;;;;;14.63;10.82;;;6.10;1.00;;;;;;5009691;28;20236;-82
2022/01/10 01:53:57;;;;;;;15.60;11.10;;;6.10;1.00;;;;;;5013440;28;20219;-80
2022/01/10 01:56:25;;;;;;;20.27;12.50;;;6.00;1.00;;;;;;5014365;28;20989;-81
2022/01/10 01:58:54;;;;;;;19.65;11.20;;;6.10;1.00;;;;;;5013960;28;20227;-80
2022/01/10 02:01:22;;;;;;;19.92;11.35;;;6.10;1.00;;;;;;5025542;28;20215;-80
2022/01/10 02:03:50;;;;;;;15.85;10.63;;;6.20;1.00;;;;;;5023903;28;20279;-81
2022/01/10 02:06:17;;;;;;;17.58;10.55;;;6.20;1.00;;;;;;5015601;28;20747;-81
2022/01/10 02:08:44;;;;;;;15.90;10.15;;;6.10;1.00;;;;;;5002026;28;20301;-80
2022/01/10 02:11:13;;;;;;;16.58;10.82;;;6.10;1.00;;;;;;5002942;28;20283;-80
2022/01/10 02:13:40;;;;;;;15.38;10.27;;;6.10;1.00;;;;;;5006676;28;20237;-81
2022/01/10 02:16:09;;;;;;;17.10;11.00;;;6.10;1.00;;;;;;5023068;28;20242;-81
2022/01/10 02:18:38;;;;;;;17.83;11.98;;;6.10;1.00;;;;;;5020584;28;20222;-81
2022/01/10 02:21:09;;;;;;;18.58;10.27;;;6.20;1.00;;;;;;5011871;28;20242;-81
2022/01/10 02:23:36;;;;;;;20.80;11.35;;;6.20;1.00;;;;;;5005415;28;21056;-81
2022/01/10 02:26:04;;;;;;;17.83;10.98;;;6.20;1.00;;;;;;5002373;28;20423;-80
2022/01/10 02:28:32;;;;;;;14.43;9.95;;;6.20;1.00;;;;;;4996587;28;20246;-80
2022/01/10 02:30:59;;;;;;;20.80;11.70;;;6.30;1.00;;;;;;5001779;28;20232;-82
2022/01/10 02:33:28;;;;;;;14.57;10.45;;;6.20;1.00;;;;;;5004776;28;20318;-81
2022/01/10 02:36:03;;;;;;;18.23;10.32;;;6.20;1.00;;;;;;4998601;28;20495;-82
2022/01/10 02:38:31;;;;;;;15.23;11.25;;;6.20;1.00;;;;;;4998704;28;20250;-80
2022/01/10 02:40:59;;;;;;;14.27;10.38;;;6.20;1.00;;;;;;4998729;28;20218;-81
2022/01/10 02:43:26;;;;;;;16.00;9.80;;;6.30;1.00;;;;;;4999913;28;20239;-80
2022/01/10 02:45:52;;;;;;;16.27;10.65;;;6.30;1.00;;;;;;4996982;28;20227;-81
2022/01/10 02:48:19;;;;;;;12.07;9.57;;;6.40;1.00;;;;;;4997569;28;20237;-80
2022/01/10 02:50:46;;;;;;;19.42;11.35;;;6.40;1.00;;;;;;4999576;28;20290;-82
2022/01/10 02:53:13;;;;;;;16.88;10.45;;;6.30;1.00;;;;;;5001808;28;20230;-79
2022/01/10 02:55:41;;;;;;;17.38;10.27;;;6.30;1.00;;;;;;4994828;28;20251;-82
2022/01/10 02:58:07;;;;;;;18.80;11.10;;;6.20;1.00;;;;;;4993315;28;20242;-84
2022/01/10 03:00:34;;;;;;;13.00;9.65;;;6.20;1.00;;;;;;4991811;28;20255;-82
2022/01/10 03:03:06;;;;;;;18.85;10.95;;;6.20;1.00;;;;;;5001299;28;20763;-82
2022/01/10 03:05:33;;;;;;;14.68;9.43;;;6.20;1.00;;;;;;4999059;28;21095;-82
2022/01/10 03:08:04;;;;;;;17.73;10.52;;;6.10;1.00;;;;;;4996425;28;20303;-82
2022/01/10 03:10:31;;;;;;;14.00;10.48;;;6.10;1.00;;;;;;4994118;28;20236;-82
2022/01/10 03:13:01;;;;;;;15.25;11.32;;;6.00;1.00;;;;;;4997388;28;20231;-81
2022/01/10 03:15:28;;;;;;;14.38;10.52;;;6.00;1.00;;;;;;5003833;28;20325;-81
2022/01/10 03:17:57;;;;;;;23.23;10.27;;;6.00;1.00;;;;;;4993015;28;22260;-80
2022/01/10 03:20:24;;;;;;;17.25;9.52;;;6.00;1.00;;;;;;4996743;28;20219;-81
2022/01/10 03:22:51;;;;;;;14.02;10.10;;;6.00;1.00;;;;;;5000646;28;20219;-80
2022/01/10 03:25:19;;;;;;;14.93;10.30;;;6.10;1.00;;;;;;4992040;28;22073;-81
2022/01/10 03:27:46;;;;;;;17.60;9.82;;;6.10;1.00;;;;;;4994914;28;20238;-80
2022/01/10 03:30:16;;;;;;;16.73;11.13;;;6.00;1.00;;;;;;4987708;28;20314;-81
2022/01/10 03:32:45;;;;;;;13.40;10.00;;;6.10;1.00;;;;;;4995474;28;20320;-82
2022/01/10 03:35:13;;;;;;;19.85;10.95;;;6.10;1.00;;;;;;4994431;28;20718;-83
2022/01/10 03:37:39;;;;;;;16.45;10.18;;;6.10;1.00;;;;;;4997261;28;20226;-82
2022/01/10 03:40:08;;;;;;;14.85;10.60;;;6.20;1.00;;;;;;4991057;28;20271;-81
2022/01/10 03:42:35;;;;;;;17.45;11.75;;;6.20;1.00;;;;;;4998884;28;20222;-83
2022/01/10 03:45:04;;;;;;;20.02;15.10;;;6.20;1.00;;;;;;5000438;28;20218;-81
2022/01/10 03:47:33;;;;;;;17.27;12.30;;;6.30;1.00;;;;;;4996944;28;20253;-80
2022/01/10 03:49:59;;;;;;;17.33;10.77;;;6.20;1.00;;;;;;5001659;28;20258;-81
2022/01/10 03:52:27;;;;;;;14.55;11.55;;;6.20;1.00;;;;;;5024097;28;20216;-79
2022/01/10 03:54:55;;;;;;;16.65;10.43;;;6.30;1.00;;;;;;5024832;28;20262;-80
2022/01/10 03:57:21;;;;;;;18.35;10.85;;;6.20;1.00;;;;;;5023430;28;20855;-80
2022/01/10 03:59:48;;;;;;;14.05;9.70;;;6.20;1.00;;;;;;5003694;28;20393;-82
2022/01/10 04:02:16;;;;;;;15.38;10.75;;;6.20;1.00;;;;;;4999029;28;20223;-81
2022/01/10 04:04:44;;;;;;;15.90;9.90;;;6.20;1.00;;;;;;5004852;28;20241;-82
2022/01/10 04:07:12;;;;;;;15.50;9.60;;;6.20;1.00;;;;;;5004166;28;20239;-82
2022/01/10 04:09:39;;;;;;;19.85;10.10;;;6.20;1.00;;;;;;4999066;28;20226;-82
2022/01/10 04:12:06;;;;;;;16.25;9.80;;;6.20;1.00;;;;;;5000277;28;20223;-80
2022/01/10 04:14:33;;;;;;;15.73;9.35;;;6.20;1.00;;;;;;5003264;28;20231;-82
2022/01/10 04:17:00;;;;;;;12.15;9.65;;;6.20;1.00;;;;;;5001613;28;20226;-81
2022/01/10 04:19:29;;;;;;;13.48;10.35;;;6.30;1.00;;;;;;5004625;28;20278;-83
2022/01/10 04:21:57;;;;;;;16.60;10.02;;;6.20;1.00;;;;;;4998566;28;20234;-80
2022/01/10 04:24:25;;;;;;;19.63;9.98;;;6.20;1.00;;;;;;5000244;28;20314;-81
2022/01/10 04:26:52;;;;;;;14.40;9.23;;;6.20;1.00;;;;;;5000211;28;20242;-84
2022/01/10 04:29:18;;;;;;;17.85;10.45;;;6.20;1.00;;;;;;5001018;28;20375;-81
2022/01/10 04:31:45;;;;;;;17.20;10.88;;;6.10;1.00;;;;;;5004277;28;20237;-82
2022/01/10 04:34:13;;;;;;;16.65;10.43;;;6.10;1.00;;;;;;5005022;28;20299;-82
2022/01/10 04:36:40;;;;;;;17.42;10.00;;;6.10;1.00;;;;;;5001666;28;20237;-81
2022/01/10 04:39:08;;;;;;;18.73;10.68;;;6.10;1.00;;;;;;5004751;28;20813;-82
2022/01/10 04:41:37;;;;;;;13.75;9.50;;;6.10;1.00;;;;;;4996804;28;20688;-81
2022/01/10 04:44:04;;;;;;;18.42;10.20;;;6.10;1.00;;;;;;4996294;28;21196;-83
2022/01/10 04:46:31;;;;;;;15.95;9.45;;;6.10;1.00;;;;;;5000390;28;21319;-81
2022/01/10 04:48:58;;;;;;;14.23;9.60;;;6.10;1.00;;;;;;4998143;28;20993;-82
2022/01/10 04:51:27;;;;;;;13.18;9.75;;;6.10;1.00;;;;;;4999602;28;22772;-81
2022/01/10 04:53:55;;;;;;;19.45;10.45;;;6.10;1.00;;;;;;4990771;28;20231;-81
2022/01/10 04:56:23;;;;;;;27.17;11.57;;;6.00;1.00;;;;;;4992332;28;20224;-81
2022/01/10 04:58:53;;;;;;;26.67;15.10;;;6.00;1.00;;;;;;4996238;28;20230;-81
2022/01/10 05:01:20;;;;;;;16.92;9.90;;;6.00;1.00;;;;;;5001991;28;21761;-81
2022/01/10 05:03:47;;;;;;;14.07;9.48;;;5.90;1.00;;;;;;5000523;28;20289;-81
2022/01/10 05:06:14;;;;;;;13.18;9.63;;;5.90;1.00;;;;;;4999576;28;21247;-80
2022/01/10 05:08:41;;;;;;;13.40;9.77;;;6.00;1.00;;;;;;5000355;28;20279;-82
2022/01/10 05:11:08;;;;;;;18.95;11.27;;;6.00;1.00;;;;;;5007039;28;20317;-82
2022/01/10 05:13:36;;;;;;;20.48;10.13;;;6.00;1.00;;;;;;5007226;28;20246;-80
2022/01/10 05:16:04;;;;;;;16.90;11.50;;;6.10;1.00;;;;;;5002752;28;20508;-82
2022/01/10 05:18:31;;;;;;;17.02;11.80;;;6.00;1.00;;;;;;5004751;28;20242;-82
2022/01/10 05:20:58;;;;;;;16.13;10.23;;;6.10;1.00;;;;;;5006727;28;20253;-82
2022/01/10 05:23:25;;;;;;;14.70;10.35;;;6.10;1.00;;;;;;5007262;28;20227;-81
2022/01/10 05:25:51;;;;;;;17.73;11.75;;;6.00;1.00;;;;;;5000988;28;20282;-80
2022/01/10 05:28:19;;;;;;;20.25;12.55;;;6.00;1.00;;;;;;5001482;28;20237;-79
2022/01/10 05:30:49;;;;;;;18.25;9.60;;;6.00;1.00;;;;;;5001343;28;20286;-79
2022/01/10 05:33:16;;;;;;;19.25;10.73;;;6.00;1.00;;;;;;5016914;28;20234;-80
2022/01/10 05:35:45;;;;;;;30.85;13.65;;;6.10;1.00;;;;;;5007738;28;20345;-79
2022/01/10 05:38:12;;;;;;;20.40;12.23;;;6.10;1.00;;;;;;5001696;28;20476;-82
2022/01/10 05:40:39;;;;;;;17.13;11.60;;;6.10;1.00;;;;;;5001639;28;20223;-79
2022/01/10 05:43:06;;;;;;;12.50;10.13;;;6.10;1.00;;;;;;5006456;28;20390;-82
2022/01/10 05:45:34;;;;;;;22.20;15.95;;;6.10;1.00;;;;;;5009472;28;20277;-78
2022/01/10 05:48:08;;;;;;;17.75;10.93;;;6.10;1.00;;;;;;5003733;28;20309;-79
2022/01/10 05:50:37;;;;;;;16.42;12.32;;;6.10;1.00;;;;;;5006847;28;20302;-81
2022/01/10 05:53:05;;;;;;;18.05;11.27;;;6.10;1.00;;;;;;5007240;28;20269;-80
2022/01/10 05:55:32;;;;;;;17.48;12.18;;;6.20;1.00;;;;;;4997436;28;21063;-80
2022/01/10 05:57:58;;;;;;;21.45;11.27;;;6.10;1.00;;;;;;4996814;28;20234;-80
2022/01/10 06:00:25;;;;;;;18.17;11.38;;;6.10;1.00;;;;;;4999840;28;20274;-80
2022/01/10 06:02:52;;;;;;;21.15;11.32;;;6.10;1.00;;;;;;5002700;28;20239;-80
2022/01/10 06:05:21;;;;;;;20.63;11.20;;;6.10;1.00;;;;;;5007592;28;20223;-81
2022/01/10 06:07:48;;;;;;;21.77;12.88;;;6.10;1.00;;;;;;5000947;28;20632;-80
2022/01/10 06:10:15;;;;;;;15.05;10.18;;;6.10;1.00;;;;;;5004291;28;20404;-81
2022/01/10 06:12:42;;;;;;;15.48;10.88;;;6.10;1.00;;;;;;5005827;28;20218;-81
2022/01/10 06:15:09;;;;;;;18.60;11.27;;;6.10;1.00;;;;;;5006893;28;21294;-81
2022/01/10 06:17:36;;;;;;;17.98;10.98;;;6.00;1.00;;;;;;4996836;28;20234;-82
2022/01/10 06:20:03;;;;;;;18.17;11.90;;;6.00;1.00;;;;;;5000315;28;20261;-81
2022/01/10 06:22:32;;;;;;;14.32;11.77;;;6.00;1.00;;;;;;5007907;28;20281;-80
2022/01/10 06:24:59;;;;;;;15.85;11.77;;;6.10;1.00;;;;;;5005902;28;20248;-80
2022/01/10 06:27:26;;;;;;;15.95;11.45;;;6.10;1.00;;;;;;5010975;28;20730;-81
2022/01/10 06:29:53;;;;;;;17.88;11.50;;;6.10;1.00;;;;;;5026909;28;20239;-85
2022/01/10 06:32:20;;;;;;;16.02;11.35;;;6.10;1.00;;;;;;5025768;28;20227;-81
2022/01/10 06:34:47;;;;;;;14.30;10.70;;;6.10;1.00;;;;;;5029738;28;20314;-82
2022/01/10 06:37:14;;;;;;;18.10;14.35;;;6.10;1.00;;;;;;5012169;28;20229;-82
2022/01/10 06:39:43;;;;;;;19.88;13.55;;;6.10;1.00;;;;;;5008737;28;20219;-81
2022/01/10 06:42:11;;;;;;;15.27;10.20;;;6.20;1.00;;;;;;5005183;28;20223;-82
2022/01/10 06:44:38;;;;;;;17.45;12.05;;;6.10;1.00;;;;;;5027038;28;20236;-85
2022/01/10 06:47:05;;;;;;;19.17;12.63;;;6.10;1.00;;;;;;5016637;28;20227;-81
2022/01/10 06:49:39;;;;;;;16.90;11.48;;;6.10;1.00;;;;;;5027267;28;20285;-84
2022/01/10 06:52:06;;;;;;;16.88;12.55;;;6.20;1.00;;;;;;5028205;28;20227;-84
2022/01/10 06:54:37;;;;;;;20.13;12.38;;;6.20;1.00;;;;;;5024988;28;20269;-86
2022/01/10 06:57:05;;;;;;;19.23;11.18;;;6.20;1.00;;;;;;5014400;28;20259;-83
2022/01/10 06:59:32;;;;;;;18.15;11.60;;;6.20;1.00;;;;;;5005661;28;20231;-85
2022/01/10 07:02:02;;;;;;;16.77;10.45;;;6.20;1.00;;;;;;5009007;28;20321;-83
2022/01/10 07:04:29;;;;;;;15.48;10.90;;;6.20;1.00;;;;;;5005530;28;20255;-84
2022/01/10 07:06:57;;;;;;;22.85;12.73;;;6.10;1.00;;;;;;5010943;28;20253;-84
2022/01/10 07:09:24;;;;;;;20.27;12.43;;;6.20;1.00;;;;;;5016207;28;20238;-81
2022/01/10 07:11:51;;;;;;;14.70;10.32;;;6.20;1.00;;;;;;5007035;28;20309;-81
2022/01/10 07:14:19;;;;;;;13.63;10.95;;;6.20;1.00;;;;;;5006652;28;20233;-82
2022/01/10 07:16:48;;;;;;;16.85;11.23;;;6.30;1.00;;;;;;5003992;28;20226;-84
2022/01/10 07:19:15;;;;;;;17.88;10.45;;;6.30;1.00;;;;;;5005269;28;20235;-84
2022/01/10 07:21:43;;;;;;;16.83;11.15;;;6.30;1.00;;;;;;5008121;28;20364;-84
2022/01/10 07:24:10;;;;;;;21.17;11.85;;;6.30;1.00;;;;;;5007215;28;20235;-83
2022/01/10 07:26:37;;;;;;;15.85;10.68;;;6.30;1.00;;;;;;5010447;28;20226;-84
2022/01/10 07:29:07;;;;;;;16.52;11.23;;;6.30;1.00;;;;;;5026405;28;20245;-81
2022/01/10 07:31:35;;;;;;;15.30;10.93;;;6.30;1.00;;;;;;5006596;28;21099;-79
2022/01/10 07:34:02;;;;;;;24.38;12.82;;;6.20;1.00;;;;;;5012755;28;20220;-78
2022/01/10 07:36:29;;;;;;;15.95;13.07;;;6.20;1.00;;;;;;5024168;28;20292;-79
2022/01/10 07:38:56;;;;;;;14.88;9.90;;;6.20;1.00;;;;;;5024010;28;20674;-78
2022/01/10 07:41:22;;;;;;;15.95;11.07;;;6.30;1.00;;;;;;5030236;28;20224;-84
2022/01/10 07:43:49;;;;;;;16.60;11.63;;;6.30;1.00;;;;;;5032146;28;20223;-84
2022/01/10 07:46:17;;;;;;;17.65;12.18;;;6.30;1.00;;;;;;5032662;28;20230;-84
2022/01/10 07:48:47;;;;;;;19.95;12.65;;;6.30;1.00;;;;;;5030580;28;20220;-83
2022/01/10 07:51:14;;;;;;;20.40;12.55;;;6.30;1.00;;;;;;5034063;28;20279;-82
2022/01/10 07:53:42;;;;;;;21.05;12.05;;;6.40;1.00;;;;;;5022298;28;20270;-78
2022/01/10 07:56:10;;;;;;;13.70;9.98;;;6.40;1.00;;;;;;5025032;28;20238;-79
2022/01/10 07:58:37;;;;;;;18.30;11.10;;;6.40;1.00;;;;;;5024594;28;20239;-79
2022/01/10 08:01:04;;;;;;;15.20;11.02;;;6.50;1.00;;;;;;5026610;28;20295;-79
2022/01/10 08:03:31;;;;;;;16.83;10.93;;;6.40;1.00;;;;;;5026557;28;20233;-80
2022/01/10 08:06:02;;;;;;;19.85;11.70;;;6.40;1.00;;;;;;5021293;28;20216;-78
2022/01/10 08:08:29;;;;;;;21.92;11.55;;;6.40;1.00;;;;;;5026153;28;20226;-80
2022/01/10 08:10:56;;;;;;;18.45;10.90;;;6.40;1.00;;;;;;5022713;28;20214;-80
2022/01/10 08:13:23;;;;;;;16.15;10.32;;;6.40;1.00;;;;;;5034631;28;20210;-87
2022/01/10 08:15:51;;;;;;;21.95;11.45;;;6.40;1.00;;;;;;5032109;28;20215;-85
2022/01/10 08:18:19;;;;;;;14.88;10.80;;;6.40;1.00;;;;;;5035436;28;20210;-85
2022/01/10 08:20:46;;;;;;;18.67;10.23;;;6.50;1.00;;;;;;5030259;28;20219;-84
2022/01/10 08:23:15;;;;;;;15.85;10.75;;;6.40;1.00;;;;;;5026921;28;20374;-82
2022/01/10 08:25:42;;;;;;;17.17;11.52;;;6.40;1.00;;;;;;5027122;28;20227;-83
2022/01/10 08:28:09;;;;;;;18.75;11.25;;;6.40;1.00;;;;;;5027712;28;20238;-82
2022/01/10 08:30:36;;;;;;;13.05;9.90;;;6.50;1.00;;;;;;5025710;28;20219;-81
2022/01/10 08:33:03;;;;;;;17.48;11.95;;;6.50;1.00;;;;;;5025187;28;20210;-83
2022/01/10 08:35:30;;;;;;;16.23;12.30;;;6.60;1.00;;;;;;5025356;28;20210;-81
2022/01/10 08:37:57;;;;;;;16.50;11.63;;;6.70;1.00;;;;;;5021446;28;20241;-80
2022/01/10 08:40:26;;;;;;;21.08;11.70;;;6.60;1.00;;;;;;5018620;28;20219;-79
2022/01/10 08:42:53;;;;;;;15.38;10.93;;;6.70;1.00;;;;;;5029006;28;20442;-79
2022/01/10 08:45:20;;;;;;;17.75;11.50;;;6.80;1.00;;;;;;5027039;28;20203;-78
2022/01/10 08:47:47;;;;;;;26.88;14.07;;;6.70;1.00;;;;;;5025404;28;20211;-78
2022/01/10 08:50:15;;;;;;;18.02;12.40;;;6.70;1.00;;;;;;5025842;28;20254;-81
2022/01/10 08:52:42;;;;;;;18.67;13.45;;;6.80;1.00;;;;;;5030200;28;20974;-79
2022/01/10 08:55:12;;;;;;;16.80;13.07;;;6.70;1.00;;;;;;5018753;28;20255;-80
2022/01/10 08:57:41;;;;;;;18.98;12.85;;;6.70;1.00;;;;;;5016756;28;20258;-81
2022/01/10 09:00:09;;;;;;;19.38;12.68;;;6.70;1.00;;;;;;5012675;28;20238;-83
2022/01/10 09:02:37;;;;;;;18.85;14.25;;;6.70;1.00;;;;;;5012923;28;20314;-83
2022/01/10 09:05:05;;;;;;;26.02;12.63;;;6.70;1.00;;;;;;5016547;28;20226;-83
2022/01/10 09:07:32;;;;;;;20.75;12.93;;;6.70;1.00;;;;;;5019698;28;20298;-83
2022/01/10 09:10:01;;;;;;;14.20;10.75;;;6.70;1.00;;;;;;5026276;28;20239;-82
2022/01/10 09:12:28;;;;;;;16.27;11.65;;;6.80;1.00;;;;;;5022794;28;20227;-82
2022/01/10 09:14:57;;;;;;;22.60;12.98;;;6.80;1.00;;;;;;5039598;28;20318;-82
2022/01/10 09:17:23;;;;;;;18.05;11.80;;;6.80;1.00;;;;;;5014514;28;20286;-85
2022/01/10 09:19:50;;;;;;;23.52;13.30;;;6.80;1.00;;;;;;5014968;28;20236;-80
2022/01/10 09:22:17;;;;;;;18.70;13.13;;;6.80;1.00;;;;;;5027522;28;20246;-81
2022/01/10 09:24:46;;;;;;;15.40;12.40;;;6.80;1.00;;;;;;5006204;28;20262;-81
2022/01/10 09:27:13;;;;;;;17.83;12.32;;;6.80;1.00;;;;;;5013938;28;20223;-79
2022/01/10 09:29:40;;;;;;;22.85;12.88;;;6.70;1.00;;;;;;5015997;28;20599;-79
2022/01/10 09:32:08;;;;;;;19.30;12.48;;;6.70;1.00;;;;;;5017955;28;20220;-79
2022/01/10 09:34:35;;;;;;;21.13;11.52;;;6.70;1.00;;;;;;5010481;28;20671;-79
2022/01/10 09:37:02;;;;;;;18.83;12.10;;;6.70;1.00;;;;;;4999550;28;20223;-80
2022/01/10 09:39:29;;;;;;;16.80;12.65;;;6.80;1.00;;;;;;5004332;28;20282;-79
2022/01/10 09:41:58;;;;;;;24.08;13.43;;;6.80;1.00;;;;;;5001440;28;20238;-79
2022/01/10 09:44:25;;;;;;;19.30;12.18;;;6.80;1.00;;;;;;5006225;28;20292;-80
2022/01/10 09:46:53;;;;;;;19.20;13.35;;;6.80;1.00;;;;;;5000405;28;20226;-80
2022/01/10 09:49:21;;;;;;;21.42;14.05;;;6.80;1.00;;;;;;5004452;28;21067;-79
2022/01/10 09:51:49;;;;;;;24.45;16.17;;;6.90;1.00;;;;;;5002093;28;20227;-81
2022/01/10 09:54:16;;;;;;;28.48;16.95;;;6.90;1.00;;;;;;5018617;28;20227;-80
2022/01/10 09:56:47;;;;;;;18.50;14.70;;;6.90;1.00;;;;;;5000131;28;20241;-80
2022/01/10 09:59:14;;;;;;;21.05;14.18;;;7.00;1.00;;;;;;4990638;28;20231;-79
2022/01/10 10:01:42;;;;;;;24.27;14.00;;;7.00;1.00;;;;;;4997177;28;20226;-79
2022/01/10 10:04:09;;;;;;;21.35;13.95;;;7.00;1.00;;;;;;4999649;28;20393;-80
2022/01/10 10:06:38;;;;;;;20.20;15.25;;;7.00;1.00;;;;;;5000568;28;20242;-78
2022/01/10 10:09:06;;;;;;;18.02;13.05;;;7.00;1.00;;;;;;4997906;28;20325;-79
2022/01/10 10:11:38;;;;;;;21.67;12.77;;;7.10;1.00;;;;;;5003471;28;20274;-79
2022/01/10 10:14:06;;;;;;;17.45;12.80;;;7.10;1.00;;;;;;5004468;28;20310;-79
2022/01/10 10:16:35;;;;;;;18.98;12.73;;;7.20;1.00;;;;;;5003926;28;20220;-81
2022/01/10 10:19:03;;;;;;;17.88;12.07;;;7.20;1.00;;;;;;5000051;28;20233;-80
2022/01/10 10:21:32;;;;;;;15.77;11.98;;;7.20;1.00;;;;;;5005896;28;20338;-80
2022/01/10 10:24:04;;;;;;;14.68;10.50;;;7.10;1.00;;;;;;5011769;28;20275;-80
2022/01/10 10:26:31;;;;;;;15.95;10.30;;;7.10;1.00;;;;;;5001176;28;20259;-79
2022/01/10 10:29:00;;;;;;;17.77;11.05;;;7.00;1.00;;;;;;5014255;28;20234;-79
2022/01/10 10:31:29;;;;;;;19.30;12.95;;;7.00;1.00;;;;;;5008226;28;20235;-82
2022/01/10 10:33:57;;;;;;;20.67;11.48;;;7.00;1.00;;;;;;5018280;28;20227;-80
2022/01/10 10:36:25;;;;;;;19.80;11.50;;;7.00;1.00;;;;;;5006925;28;21253;-78
2022/01/10 10:38:52;;;;;;;15.40;11.85;;;7.10;1.00;;;;;;4996966;28;20232;-79
2022/01/10 10:41:21;;;;;;;18.75;12.23;;;7.10;1.00;;;;;;5003542;28;21561;-78
2022/01/10 10:43:50;;;;;;;14.48;11.32;;;7.10;1.00;;;;;;5013479;28;20215;-78
2022/01/10 10:46:18;;;;;;;19.33;11.80;;;7.10;1.00;;;;;;5018003;28;20231;-79
2022/01/10 10:48:48;;;;;;;14.52;10.10;;;7.10;1.00;;;;;;5013886;28;20227;-79
2022/01/10 10:51:15;;;;;;;17.80;9.70;;;7.10;1.00;;;;;;5004401;28;20239;-80
2022/01/10 10:53:42;;;;;;;15.25;9.95;;;7.20;1.00;;;;;;4999493;28;20243;-78
2022/01/10 10:56:09;;;;;;;16.63;10.48;;;7.20;1.00;;;;;;5003956;28;20227;-80
2022/01/10 10:58:39;;;;;;;12.45;9.40;;;7.10;1.00;;;;;;5003431;28;20223;-79
2022/01/10 11:01:06;;;;;;;12.75;8.85;;;7.10;1.00;;;;;;4999433;28;20231;-80
2022/01/10 11:03:33;;;;;;;68.05;39.78;;;7.10;1.00;;;;;;5001124;28;20287;-80
2022/01/10 11:06:03;;;;;;;16.20;10.30;;;7.10;1.00;;;;;;5002868;28;20228;-80
2022/01/10 11:08:32;;;;;;;13.60;9.43;;;7.00;1.00;;;;;;4999191;28;21294;-81
2022/01/10 11:11:00;;;;;;;11.32;8.80;;;7.00;1.00;;;;;;5003574;28;20581;-80
2022/01/10 11:13:28;;;;;;;12.68;9.63;;;7.10;1.00;;;;;;5007196;28;20231;-80
2022/01/10 11:15:57;;;;;;;12.68;9.43;;;7.10;1.00;;;;;;5007470;28;20217;-80
2022/01/10 11:18:25;;;;;;;12.73;9.45;;;7.20;1.00;;;;;;5001695;28;20777;-80
2022/01/10 11:20:55;;;;;;;13.52;9.27;;;7.30;1.00;;;;;;5004584;28;21472;-79
2022/01/10 11:23:23;;;;;;;12.30;9.70;;;7.40;1.00;;;;;;5005831;28;21031;-79
2022/01/10 11:25:50;;;;;;;12.48;9.25;;;7.40;1.00;;;;;;5004639;28;20239;-81
2022/01/10 11:28:23;;;;;;;18.95;12.38;;;7.40;1.00;;;;;;5004990;28;20498;-78
2022/01/10 11:30:51;;;;;;;25.88;15.85;;;7.40;1.00;;;;;;5013890;28;20227;-78
2022/01/10 11:33:21;;;;;;;24.25;16.92;;;7.30;1.00;;;;;;5020303;28;20258;-77
2022/01/10 11:35:51;;;;;;;28.48;17.52;;;7.20;1.00;;;;;;5024627;28;20311;-77
2022/01/10 11:38:30;;;;;;;28.42;18.60;;;7.10;1.00;;;;;;5014743;28;24176;-78
2022/01/10 11:41:00;;;;;;;23.05;17.25;;;7.10;1.00;;;;;;5002527;28;20233;-78
2022/01/10 11:43:51;;;;;;;28.33;18.63;;;7.00;1.00;;;;;;5005170;28;21249;-80
2022/01/10 11:46:25;;;;;;;26.02;17.65;;;6.90;1.00;;;;;;4999585;28;20235;-80
2022/01/10 11:48:57;;;;;;;26.67;18.83;;;6.80;1.00;;;;;;5022781;28;20249;-80
2022/01/10 11:51:27;;;;;;;33.03;21.17;;;6.80;1.00;;;;;;5014922;28;20242;-81
2022/01/10 11:54:00;;;;;;;27.13;18.30;;;6.90;1.00;;;;;;4999715;28;20302;-81
2022/01/10 11:56:30;;;;;;;24.65;19.02;;;6.80;1.00;;;;;;5000096;28;20224;-79
2022/01/10 11:59:24;;;;;;;26.48;17.88;;;6.70;1.00;;;;;;5004612;28;20237;-80
2022/01/10 12:01:57;;;;;;;31.90;19.23;;;6.70;1.00;;;;;;5006229;28;20257;-78
2022/01/10 12:04:27;;;;;;;27.05;18.92;;;6.60;1.00;;;;;;5021758;28;20259;-79
2022/01/10 12:06:54;;;;;;;36.65;20.30;;;6.60;1.00;;;;;;4999969;28;20265;-80
2022/01/10 12:09:21;;;;;;;28.35;20.48;;;6.60;1.00;;;;;;5008616;28;20231;-80
2022/01/10 12:11:50;;;;;;;30.85;19.52;;;6.60;1.00;;;;;;5004239;28;20421;-82
2022/01/10 12:14:18;;;;;;;30.50;19.45;;;6.50;1.00;;;;;;5000708;28;20223;-81
2022/01/10 12:16:45;;;;;;;27.70;19.65;;;6.50;1.00;;;;;;5002929;28;20220;-81
2022/01/10 12:19:12;;;;;;;27.73;18.23;;;6.50;1.00;;;;;;5002092;28;20239;-80
2022/01/10 12:21:41;;;;;;;26.67;19.92;;;6.60;1.00;;;;;;5006273;28;20622;-80
2022/01/10 12:24:08;;;;;;;28.10;19.05;;;6.70;1.00;;;;;;5008574;28;20238;-83
2022/01/10 12:26:36;;;;;;;29.45;18.88;;;6.80;1.00;;;;;;5003287;28;21115;-83
2022/01/10 12:29:05;;;;;;;27.10;18.95;;;6.80;1.00;;;;;;4996057;28;20238;-82
2022/01/10 12:31:33;;;;;;;31.90;19.75;;;6.80;1.00;;;;;;5016305;28;20266;-81
2022/01/10 12:34:02;;;;;;;29.45;20.05;;;6.70;1.00;;;;;;4998451;28;20231;-80
2022/01/10 12:36:32;;;;;;;28.63;21.13;;;6.70;1.00;;;;;;5000940;28;20666;-80
2022/01/10 12:39:03;;;;;;;29.23;20.02;;;6.70;1.00;;;;;;5001439;28;20230;-79
2022/01/10 12:41:31;;;;;;;31.25;18.33;;;6.70;1.00;;;;;;4996274;28;20266;-80
2022/01/10 12:43:57;;;;;;;31.63;19.90;;;6.70;1.00;;;;;;5001322;28;20231;-80
2022/01/10 12:46:27;;;;;;;32.20;20.55;;;6.70;1.00;;;;;;4997795;28;20310;-80
2022/01/10 12:48:55;;;;;;;38.40;20.60;;;6.60;1.00;;;;;;5000688;28;20227;-83
2022/01/10 12:51:22;;;;;;;31.27;19.17;;;6.50;1.00;;;;;;5002082;28;20246;-80
2022/01/10 12:53:51;;;;;;;33.70;19.30;;;6.40;1.00;;;;;;4996626;28;20245;-80
2022/01/10 12:56:22;;;;;;;31.23;19.52;;;6.40;1.00;;;;;;4998975;28;20222;-81